createdAt,value
2023-04-11T00:01:50.256Z,22.00
2023-04-11T00:04:17.458Z,25.50
2023-04-11T00:06:44.067Z,24.00
2023-04-11T00:09:13.374Z,24.60
2023-04-11T00:11:39.936Z,24.60
2023-04-11T00:14:09.052Z,28.60
2023-04-11T00:16:36.031Z,23.50
2023-04-11T00:19:02.555Z,23.40
2023-04-11T00:21:29.222Z,21.80
2023-04-11T00:23:55.794Z,22.50
2023-04-11T00:26:22.276Z,28.25
2023-04-11T00:28:48.705Z,26.20
2023-04-11T00:31:16.478Z,23.00
2023-04-11T00:33:45.338Z,26.50
2023-04-11T00:36:11.959Z,23.50
2023-04-11T00:38:38.536Z,22.40
2023-04-11T00:41:05.102Z,23.75
2023-04-11T00:43:31.587Z,22.00
2023-04-11T00:45:58.196Z,21.40
2023-04-11T00:48:28.310Z,24.00
2023-04-11T00:50:55.559Z,21.00
2023-04-11T00:53:22.787Z,18.00
2023-04-11T00:55:50.132Z,18.80
2023-04-11T00:58:16.971Z,20.40
2023-04-11T01:00:43.461Z,22.00
2023-04-11T01:03:10.123Z,20.60
2023-04-11T01:05:37.184Z,18.40
2023-04-11T01:08:03.836Z,24.00
2023-04-11T01:10:31.946Z,19.00
2023-04-11T01:13:00.167Z,25.40
2023-04-11T01:15:26.738Z,21.50
2023-04-11T01:17:55.651Z,25.50
2023-04-11T01:20:22.640Z,17.00
2023-04-11T01:22:50.121Z,23.50
2023-04-11T01:25:18.593Z,24.80
2023-04-11T01:27:45.060Z,21.50
2023-04-11T01:30:12.625Z,25.00
2023-04-11T01:32:39.264Z,19.80
2023-04-11T01:35:06.114Z,18.00
2023-04-11T01:37:32.707Z,21.00
2023-04-11T01:39:59.141Z,33.60
2023-04-11T01:42:25.953Z,25.75
2023-04-11T01:44:52.777Z,22.20
2023-04-11T01:47:19.412Z,21.00
2023-04-11T01:49:45.912Z,23.00
2023-04-11T01:52:12.407Z,22.60
2023-04-11T01:54:38.983Z,24.60
2023-04-11T01:57:06.052Z,21.33
2023-04-11T01:59:32.551Z,24.80
2023-04-11T02:01:59.173Z,29.00
2023-04-11T02:04:26.069Z,21.50
2023-04-11T02:06:52.620Z,25.00
2023-04-11T02:09:19.675Z,32.80
2023-04-11T02:11:46.532Z,25.75
2023-04-11T02:14:14.445Z,25.00
2023-04-11T02:16:55.488Z,33.00
2023-04-11T02:19:23.433Z,37.00
2023-04-11T02:21:49.997Z,32.00
2023-04-11T02:24:16.574Z,31.40
2023-04-11T02:26:43.118Z,27.00
2023-04-11T02:29:09.880Z,30.80
2023-04-11T02:31:36.557Z,28.00
2023-04-11T02:34:03.124Z,27.20
2023-04-11T02:36:30.110Z,30.50
2023-04-11T02:38:56.724Z,26.40
2023-04-11T02:41:23.396Z,27.40
2023-04-11T02:43:49.891Z,22.40
2023-04-11T02:46:16.435Z,28.60
2023-04-11T02:48:42.991Z,27.40
2023-04-11T02:51:09.427Z,30.00
2023-04-11T02:53:35.975Z,33.25
2023-04-11T02:56:02.410Z,26.40
2023-04-11T02:58:29.109Z,29.00
2023-04-11T03:00:56.382Z,29.50
2023-04-11T03:03:23.142Z,29.40
2023-04-11T03:05:49.673Z,30.20
2023-04-11T03:08:16.188Z,28.00
2023-04-11T03:10:42.764Z,26.50
2023-04-11T03:13:09.300Z,29.40
2023-04-11T03:15:36.031Z,32.20
2023-04-11T03:18:03.032Z,31.67
2023-04-11T03:20:29.580Z,25.00
2023-04-11T03:22:56.148Z,32.40
2023-04-11T03:25:22.734Z,22.00
2023-04-11T03:27:49.186Z,25.00
2023-04-11T03:30:15.892Z,32.80
2023-04-11T03:32:42.520Z,29.50
2023-04-11T03:35:09.291Z,28.00
2023-04-11T03:37:36.547Z,37.00
2023-04-11T03:40:04.422Z,31.40
2023-04-11T03:42:31.021Z,34.00
2023-04-11T03:44:57.531Z,22.75
2023-04-11T03:47:24.077Z,27.25
2023-04-11T03:49:50.680Z,38.50
2023-04-11T03:52:17.624Z,35.00
2023-04-11T03:54:45.778Z,32.50
2023-04-11T03:57:13.637Z,27.25
2023-04-11T03:59:40.387Z,37.80
2023-04-11T04:02:07.078Z,31.50
2023-04-11T04:04:33.714Z,29.75
2023-04-11T04:07:01.767Z,37.25
2023-04-11T04:09:28.306Z,33.40
2023-04-11T04:11:55.063Z,38.75
2023-04-11T04:14:21.507Z,32.00
2023-04-11T04:16:47.976Z,33.20
2023-04-11T04:19:14.675Z,33.40
2023-04-11T04:21:42.009Z,31.60
2023-04-11T04:24:08.478Z,35.00
2023-04-11T04:26:38.095Z,38.60
2023-04-11T04:29:05.217Z,34.00
2023-04-11T04:31:33.970Z,31.75
2023-04-11T04:34:02.808Z,32.50
2023-04-11T04:36:29.559Z,37.00
2023-04-11T04:39:02.137Z,38.50
2023-04-11T04:41:36.467Z,41.00
2023-04-11T04:44:04.579Z,30.00
2023-04-11T04:46:36.729Z,41.20
2023-04-11T04:49:04.499Z,43.00
2023-04-11T04:51:30.944Z,31.25
2023-04-11T04:54:00.335Z,43.75
2023-04-11T04:56:30.461Z,36.00
2023-04-11T04:58:57.592Z,39.40
2023-04-11T05:01:26.808Z,35.00
2023-04-11T05:03:59.995Z,32.50
2023-04-11T05:06:31.584Z,38.75
2023-04-11T05:08:59.188Z,40.40
2023-04-11T05:11:26.432Z,43.00
2023-04-11T05:13:53.249Z,37.00
2023-04-11T05:16:19.791Z,46.50
2023-04-11T05:18:46.546Z,38.75
2023-04-11T05:21:13.665Z,40.80
2023-04-11T05:23:40.684Z,36.00
2023-04-11T05:26:07.722Z,38.50
2023-04-11T05:28:34.592Z,40.80
2023-04-11T05:31:02.278Z,39.50
2023-04-11T05:33:29.002Z,35.33
2023-04-11T05:35:55.812Z,38.80
2023-04-11T05:38:22.366Z,42.75
2023-04-11T05:40:48.987Z,42.75
2023-04-11T05:43:15.647Z,41.80
2023-04-11T05:45:42.713Z,46.75
2023-04-11T05:48:09.373Z,44.00
2023-04-11T05:50:36.282Z,39.40
2023-04-11T05:53:03.435Z,39.50
2023-04-11T05:55:30.098Z,41.50
2023-04-11T05:57:56.597Z,42.80
2023-04-11T06:00:24.370Z,39.00
2023-04-11T06:02:51.086Z,36.50
2023-04-11T06:05:19.116Z,37.00
2023-04-11T06:07:45.941Z,39.00
2023-04-11T06:10:12.433Z,40.00
2023-04-11T06:12:39.119Z,43.20
2023-04-11T06:15:06.385Z,41.00
2023-04-11T06:17:32.863Z,38.75
2023-04-11T06:19:59.327Z,43.40
2023-04-11T06:22:25.993Z,39.00
2023-04-11T06:24:52.839Z,39.25
2023-04-11T06:27:19.308Z,41.00
2023-04-11T06:29:45.845Z,37.00
2023-04-11T06:32:12.458Z,39.25
2023-04-11T06:34:39.513Z,40.50
2023-04-11T06:37:07.052Z,34.00
2023-04-11T06:39:34.483Z,25.60
2023-04-11T06:42:01.525Z,35.00
2023-04-11T06:44:28.233Z,27.60
2023-04-11T06:46:55.116Z,32.25
2023-04-11T06:49:22.668Z,29.40
2023-04-11T06:51:52.243Z,25.00
2023-04-11T06:54:18.836Z,32.20
2023-04-11T06:56:45.793Z,25.20
2023-04-11T06:59:12.222Z,27.50
2023-04-11T07:01:39.872Z,19.80
2023-04-11T07:04:07.188Z,21.60
2023-04-11T07:06:35.873Z,20.50
2023-04-11T07:09:05.745Z,22.00
2023-04-11T07:11:32.667Z,19.00
2023-04-11T07:13:59.819Z,21.80
2023-04-11T07:16:27.271Z,23.60
2023-04-11T07:18:54.227Z,17.75
2023-04-11T07:21:20.713Z,24.80
2023-04-11T07:23:47.277Z,26.00
2023-04-11T07:26:14.545Z,22.00
2023-04-11T07:28:41.467Z,21.00
2023-04-11T07:31:08.588Z,17.20
2023-04-11T07:33:35.262Z,20.00
2023-04-11T07:36:01.978Z,22.50
2023-04-11T07:38:31.219Z,16.75
2023-04-11T07:40:58.581Z,18.00
2023-04-11T07:43:25.811Z,17.40
2023-04-11T07:45:52.947Z,15.00
2023-04-11T07:48:21.294Z,12.60
2023-04-11T07:50:47.749Z,14.80
2023-04-11T07:53:14.486Z,12.40
2023-04-11T07:55:41.438Z,11.40
2023-04-11T07:58:08.097Z,11.25
2023-04-11T08:00:35.268Z,9.00
2023-04-11T08:03:05.512Z,9.00
2023-04-11T08:05:32.562Z,8.00
2023-04-11T08:07:59.320Z,5.40
2023-04-11T08:10:25.968Z,8.60
2023-04-11T08:12:52.589Z,6.75
2023-04-11T08:15:19.280Z,4.60
2023-04-11T08:17:46.461Z,6.00
2023-04-11T08:20:13.962Z,7.00
2023-04-11T08:22:42.228Z,7.80
2023-04-11T08:25:09.017Z,5.00
2023-04-11T08:27:35.836Z,6.00
2023-04-11T08:30:03.679Z,5.00
2023-04-11T08:32:30.482Z,6.40
2023-04-11T08:34:56.951Z,7.25
2023-04-11T08:37:23.513Z,4.60
2023-04-11T08:39:50.040Z,5.20
2023-04-11T08:42:30.019Z,3.60
2023-04-11T08:44:57.660Z,5.60
2023-04-11T08:47:24.555Z,4.00
2023-04-11T08:49:51.542Z,3.00
2023-04-11T08:52:21.634Z,5.60
2023-04-11T08:54:48.793Z,3.60
2023-04-11T08:57:28.295Z,1.00
2023-04-11T08:59:55.720Z,3.00
2023-04-11T09:02:22.626Z,4.00
2023-04-11T09:04:52.468Z,1.80
2023-04-11T09:07:19.740Z,5.00
2023-04-11T09:09:46.484Z,4.60
2023-04-11T09:12:13.424Z,3.40
2023-04-11T09:14:40.995Z,1.50
2023-04-11T09:17:14.474Z,3.25
2023-04-11T09:19:42.085Z,2.60
2023-04-11T09:22:09.079Z,3.40
2023-04-11T09:24:36.243Z,2.25
2023-04-11T09:27:13.046Z,5.00
2023-04-11T09:29:46.463Z,4.40
2023-04-11T09:32:35.211Z,4.00
2023-04-11T09:35:11.087Z,5.40
2023-04-11T09:37:44.648Z,3.00
2023-04-11T09:40:12.037Z,4.00
2023-04-11T09:42:38.678Z,4.25
2023-04-11T09:45:05.554Z,3.80
2023-04-11T09:47:32.942Z,2.00
2023-04-11T09:49:59.854Z,3.00
2023-04-11T09:52:27.174Z,5.00
2023-04-11T09:54:54.484Z,4.60
2023-04-11T09:57:22.915Z,7.50
2023-04-11T09:59:50.530Z,6.00
2023-04-11T10:02:17.216Z,3.00
2023-04-11T10:04:45.079Z,3.00
2023-04-11T10:07:14.193Z,2.00
2023-04-11T10:09:43.407Z,4.20
2023-04-11T10:12:09.875Z,4.00
2023-04-11T10:14:39.811Z,3.00
2023-04-11T10:17:23.009Z,2.00
2023-04-11T10:19:54.857Z,6.00
2023-04-11T10:22:39.922Z,3.00
2023-04-11T10:25:16.854Z,2.50
2023-04-11T10:27:48.996Z,5.00
2023-04-11T10:30:15.964Z,2.75
2023-04-11T10:33:02.368Z,4.00
2023-04-11T10:35:30.156Z,1.50
2023-04-11T10:37:56.875Z,4.60
2023-04-11T10:40:25.468Z,4.60
2023-04-11T10:42:52.168Z,3.75
2023-04-11T10:45:22.685Z,1.60
2023-04-11T10:47:52.223Z,5.60
2023-04-11T10:50:24.987Z,4.00
2023-04-11T10:52:52.096Z,1.00
2023-04-11T10:55:19.132Z,2.25
2023-04-11T10:58:04.018Z,3.80
2023-04-11T11:00:32.621Z,4.00
2023-04-11T11:03:01.893Z,3.00
2023-04-11T11:05:28.653Z,5.00
2023-04-11T11:07:55.480Z,0.40
2023-04-11T11:10:42.358Z,3.00
2023-04-11T11:13:09.680Z,3.00
2023-04-11T11:15:40.149Z,2.00
2023-04-11T11:18:07.978Z,1.50
2023-04-11T11:20:35.290Z,3.00
2023-04-11T11:23:03.204Z,3.50
2023-04-11T11:25:29.917Z,2.75
2023-04-11T11:28:02.192Z,0.00
2023-04-11T11:30:30.418Z,2.00
2023-04-11T11:32:57.484Z,3.00
2023-04-11T11:35:24.982Z,1.50
2023-04-11T11:38:01.275Z,5.00
2023-04-11T11:40:27.957Z,1.00
2023-04-11T11:42:54.519Z,1.40
2023-04-11T11:45:21.852Z,2.20
2023-04-11T11:47:49.092Z,2.50
2023-04-11T11:50:29.340Z,3.25
2023-04-11T11:52:56.724Z,1.00
2023-04-11T11:55:23.746Z,1.20
2023-04-11T11:57:50.626Z,2.00
2023-04-11T12:00:27.202Z,1.00
2023-04-11T12:02:55.708Z,1.00
2023-04-11T12:05:24.596Z,3.75
2023-04-11T12:07:54.761Z,3.50
2023-04-11T12:10:21.427Z,2.00
2023-04-11T12:12:53.059Z,1.75
2023-04-11T12:15:21.551Z,1.60
2023-04-11T12:17:55.132Z,1.00
2023-04-11T12:20:22.572Z,7.00
2023-04-11T12:22:49.072Z,3.00
2023-04-11T12:25:15.650Z,1.20
2023-04-11T12:27:43.247Z,3.75
2023-04-11T12:30:10.572Z,2.80
2023-04-11T12:32:37.130Z,1.50
2023-04-11T12:35:04.632Z,1.20
2023-04-11T12:37:31.553Z,3.20
2023-04-11T12:39:58.046Z,2.00
2023-04-11T12:42:27.234Z,5.00
2023-04-11T12:44:54.147Z,2.75
2023-04-11T12:47:20.790Z,4.25
2023-04-11T12:49:47.357Z,1.00
2023-04-11T12:52:13.824Z,3.80
2023-04-11T12:54:40.436Z,1.60
2023-04-11T12:57:07.754Z,6.00
2023-04-11T12:59:34.290Z,3.00
2023-04-11T13:02:01.794Z,3.00
2023-04-11T13:04:28.635Z,3.00
2023-04-11T13:07:00.920Z,3.50
2023-04-11T13:09:31.640Z,4.00
2023-04-11T13:11:58.560Z,2.00
2023-04-11T13:14:25.433Z,1.80
2023-04-11T13:16:51.991Z,4.00
2023-04-11T13:19:18.430Z,2.40
2023-04-11T13:21:44.933Z,3.00
2023-04-11T13:24:11.401Z,4.00
2023-04-11T13:26:39.448Z,4.00
2023-04-11T13:29:06.780Z,4.60
2023-04-11T13:31:33.544Z,2.00
2023-04-11T13:34:00.310Z,3.00
2023-04-11T13:36:29.834Z,4.00
2023-04-11T13:38:56.951Z,2.00
2023-04-11T13:41:24.055Z,3.25
2023-04-11T13:43:53.927Z,2.00
2023-04-11T13:46:21.862Z,2.25
2023-04-11T13:48:48.390Z,2.80
2023-04-11T13:51:14.923Z,2.00
2023-04-11T13:53:42.526Z,1.20
2023-04-11T13:56:09.107Z,4.50
2023-04-11T13:58:35.622Z,5.00
2023-04-11T14:01:02.102Z,2.20
2023-04-11T14:03:33.154Z,3.40
2023-04-11T14:06:00.418Z,2.00
2023-04-11T14:08:27.774Z,4.40
2023-04-11T14:10:54.740Z,3.40
2023-04-11T14:13:21.354Z,3.00
2023-04-11T14:15:54.854Z,1.80
2023-04-11T14:18:31.828Z,3.50
2023-04-11T14:21:01.360Z,1.80
2023-04-11T14:23:28.951Z,2.00
2023-04-11T14:25:55.500Z,3.75
2023-04-11T14:28:22.047Z,1.40
2023-04-11T14:30:48.625Z,5.60
2023-04-11T14:33:15.739Z,1.00
2023-04-11T14:35:42.898Z,2.60
2023-04-11T14:38:09.389Z,4.00
2023-04-11T14:40:35.822Z,2.00
2023-04-11T14:43:02.399Z,3.00
2023-04-11T14:45:28.895Z,4.00
2023-04-11T14:47:55.451Z,7.00
2023-04-11T14:50:21.948Z,2.00
2023-04-11T14:52:48.535Z,1.00
2023-04-11T14:55:15.010Z,1.00
2023-04-11T14:57:45.204Z,2.00
2023-04-11T15:00:18.066Z,1.75
2023-04-11T15:02:45.159Z,2.40
2023-04-11T15:05:13.772Z,1.00
2023-04-11T15:07:40.268Z,4.60
2023-04-11T15:10:07.245Z,3.40
2023-04-11T15:12:33.871Z,2.00
2023-04-11T15:15:00.443Z,1.75
2023-04-11T15:17:26.912Z,4.50
2023-04-11T15:19:53.432Z,4.00
2023-04-11T15:22:19.855Z,2.75
2023-04-11T15:24:46.295Z,2.00
2023-04-11T15:27:12.876Z,2.20
2023-04-11T15:29:39.327Z,1.00
2023-04-11T15:32:06.033Z,4.75
2023-04-11T15:34:32.449Z,1.40
2023-04-11T15:36:59.736Z,1.00
2023-04-11T15:39:26.293Z,3.00
2023-04-11T15:41:52.730Z,4.00
2023-04-11T15:44:19.214Z,3.75
2023-04-11T15:46:47.229Z,6.00
2023-04-11T15:49:15.507Z,13.00
2023-04-11T15:51:44.438Z,7.00
2023-04-11T15:54:10.887Z,6.00
2023-04-11T15:56:37.445Z,4.00
2023-04-11T15:59:03.983Z,4.50
2023-04-11T16:01:31.074Z,3.00
2023-04-11T16:03:58.052Z,4.40
2023-04-11T16:06:24.742Z,2.00
2023-04-11T16:08:51.314Z,3.00
2023-04-11T16:11:20.031Z,1.00
2023-04-11T16:13:49.171Z,4.00
2023-04-11T16:16:15.952Z,4.40
2023-04-11T16:18:42.553Z,3.50
2023-04-11T16:21:15.795Z,1.00
2023-04-11T16:23:42.819Z,3.00
2023-04-11T16:26:09.347Z,2.00
2023-04-11T16:28:36.038Z,2.75
2023-04-11T16:31:02.509Z,4.75
2023-04-11T16:33:29.124Z,2.00
2023-04-11T16:35:55.757Z,3.80
2023-04-11T16:38:22.468Z,4.00
2023-04-11T16:40:48.900Z,5.00
2023-04-11T16:43:15.439Z,4.50
2023-04-11T16:45:41.858Z,4.60
2023-04-11T16:48:09.512Z,5.25
2023-04-11T16:50:36.183Z,6.00
2023-04-11T16:53:02.718Z,2.60
2023-04-11T16:55:29.331Z,5.00
2023-04-11T16:57:56.010Z,3.80
2023-04-11T17:00:22.570Z,2.00
2023-04-11T17:02:49.199Z,3.60
2023-04-11T17:05:18.895Z,4.60
2023-04-11T17:07:45.510Z,4.00
2023-04-11T17:10:12.014Z,8.00
2023-04-11T17:12:38.530Z,8.00
2023-04-11T17:15:07.119Z,5.50
2023-04-11T17:17:34.033Z,4.00
2023-04-11T17:20:07.349Z,7.00
2023-04-11T17:22:33.820Z,6.00
2023-04-11T17:25:00.221Z,9.00
2023-04-11T17:27:26.696Z,3.50
2023-04-11T17:29:53.169Z,4.00
2023-04-11T17:32:19.647Z,6.00
2023-04-11T17:34:47.864Z,6.00
2023-04-11T17:37:14.286Z,4.00
2023-04-11T17:39:41.600Z,3.75
2023-04-11T17:42:08.273Z,1.75
2023-04-11T17:44:34.852Z,8.00
2023-04-11T17:47:01.451Z,7.80
2023-04-11T17:49:27.969Z,7.20
2023-04-11T17:51:59.224Z,4.20
2023-04-11T17:54:26.140Z,8.50
2023-04-11T17:56:52.904Z,3.80
2023-04-11T17:59:20.283Z,7.67
2023-04-11T18:01:47.143Z,3.80
2023-04-11T18:04:15.339Z,5.00
2023-04-11T18:06:42.444Z,5.50
2023-04-11T18:09:09.189Z,4.50
2023-04-11T18:11:36.324Z,5.00
2023-04-11T18:14:02.875Z,3.80
2023-04-11T18:16:29.561Z,4.80
2023-04-11T18:18:56.908Z,5.00
2023-04-11T18:21:23.378Z,4.00
2023-04-11T18:23:49.921Z,3.50
2023-04-11T18:26:16.403Z,3.00
2023-04-11T18:28:42.862Z,8.00
2023-04-11T18:31:09.787Z,2.00
2023-04-11T18:33:42.128Z,4.40
2023-04-11T18:36:09.778Z,3.00
2023-04-11T18:38:36.294Z,4.40
2023-04-11T18:41:06.227Z,2.00
2023-04-11T18:43:34.240Z,5.00
2023-04-11T18:46:03.950Z,3.50
2023-04-11T18:48:31.764Z,7.00
2023-04-11T18:50:59.004Z,4.00
2023-04-11T18:53:26.270Z,3.00
2023-04-11T18:55:52.768Z,5.60
2023-04-11T18:58:23.193Z,7.20
2023-04-11T19:00:51.317Z,4.00
2023-04-11T19:03:18.061Z,4.25
2023-04-11T19:05:45.472Z,5.50
2023-04-11T19:08:12.255Z,5.25
2023-04-11T19:10:38.745Z,6.00
2023-04-11T19:13:05.942Z,5.00
2023-04-11T19:15:32.521Z,7.00
2023-04-11T19:17:59.779Z,8.00
2023-04-11T19:20:26.788Z,4.40
2023-04-11T19:22:53.383Z,6.00
2023-04-11T19:25:19.932Z,7.00
2023-04-11T19:27:47.135Z,11.60
2023-04-11T19:30:17.059Z,7.40
2023-04-11T19:32:45.809Z,9.00
2023-04-11T19:35:12.710Z,9.60
2023-04-11T19:37:39.743Z,7.75
2023-04-11T19:40:15.467Z,7.60
2023-04-11T19:42:42.272Z,7.75
2023-04-11T19:45:09.743Z,11.80
2023-04-11T19:47:36.381Z,12.00
2023-04-11T19:50:03.012Z,12.20
2023-04-11T19:52:29.643Z,11.25
2023-04-11T19:54:56.975Z,11.75
2023-04-11T19:57:23.932Z,12.20
2023-04-11T19:59:51.038Z,8.20
2023-04-11T20:02:17.700Z,10.60
2023-04-11T20:04:45.811Z,17.00
2023-04-11T20:07:14.287Z,11.00
2023-04-11T20:09:41.170Z,12.00
2023-04-11T20:12:07.818Z,27.40
2023-04-11T20:14:34.296Z,21.00
2023-04-11T20:17:01.044Z,19.00
2023-04-11T20:19:29.855Z,12.00
2023-04-11T20:21:56.497Z,13.50
2023-04-11T20:24:23.870Z,9.50
2023-04-11T20:26:51.342Z,10.00
2023-04-11T20:29:18.202Z,8.00
2023-04-11T20:31:44.923Z,7.00
2023-04-11T20:34:11.683Z,6.75
2023-04-11T20:36:38.594Z,11.00
2023-04-11T20:39:05.348Z,11.40
2023-04-11T20:41:32.372Z,13.40
2023-04-11T20:43:59.765Z,8.00
2023-04-11T20:46:29.743Z,10.75
2023-04-11T20:48:56.548Z,10.00
2023-04-11T20:51:23.180Z,9.50
2023-04-11T20:53:49.741Z,12.00
2023-04-11T20:56:16.202Z,9.00
2023-04-11T20:58:42.817Z,8.75
2023-04-11T21:01:09.420Z,10.00
2023-04-11T21:03:38.831Z,13.25
2023-04-11T21:06:07.496Z,7.60
2023-04-11T21:08:35.422Z,14.00
2023-04-11T21:11:02.108Z,9.25
2023-04-11T21:13:28.602Z,6.75
2023-04-11T21:15:55.078Z,7.80
2023-04-11T21:18:21.554Z,9.50
2023-04-11T21:20:47.978Z,8.75
2023-04-11T21:23:14.489Z,7.00
2023-04-11T21:25:41.328Z,9.00
2023-04-11T21:28:07.822Z,7.00
2023-04-11T21:30:34.370Z,10.00
2023-04-11T21:33:01.041Z,9.80
2023-04-11T21:35:27.762Z,8.00
2023-04-11T21:37:54.263Z,11.40
2023-04-11T21:40:20.889Z,10.25
2023-04-11T21:42:47.381Z,7.00
2023-04-11T21:45:13.947Z,9.80
2023-04-11T21:47:40.522Z,10.80
2023-04-11T21:50:07.465Z,13.00
2023-04-11T21:52:33.908Z,10.50
2023-04-11T21:55:00.539Z,9.00
2023-04-11T21:57:27.170Z,15.00
2023-04-11T21:59:53.727Z,14.80
2023-04-11T22:02:20.330Z,11.00
2023-04-11T22:05:01.650Z,15.50
2023-04-11T22:07:46.226Z,9.00
2023-04-11T22:10:15.107Z,17.60
2023-04-11T22:12:42.001Z,13.80
2023-04-11T22:15:09.839Z,11.25
2023-04-11T22:17:37.392Z,19.00
2023-04-11T22:20:05.014Z,19.00
2023-04-11T22:22:32.485Z,23.60
2023-04-11T22:25:00.680Z,22.50
2023-04-11T22:27:27.474Z,16.20
2023-04-11T22:29:56.252Z,14.00
2023-04-11T22:32:26.576Z,17.60
2023-04-11T22:34:53.191Z,13.00
2023-04-11T22:37:19.855Z,15.00
2023-04-11T22:39:46.543Z,14.00
2023-04-11T22:42:13.048Z,21.50
2023-04-11T22:44:39.606Z,14.50
2023-04-11T22:47:08.073Z,20.20
2023-04-11T22:49:40.619Z,17.00
2023-04-11T22:52:08.110Z,17.50
2023-04-11T22:54:35.279Z,16.40
2023-04-11T22:57:01.849Z,26.00
2023-04-11T22:59:28.414Z,26.40
2023-04-11T23:01:55.141Z,28.40
2023-04-11T23:04:22.329Z,30.00
2023-04-11T23:06:53.603Z,25.75
2023-04-11T23:09:20.770Z,29.00
2023-04-11T23:11:48.040Z,28.50
2023-04-11T23:14:15.500Z,22.60
2023-04-11T23:16:43.381Z,24.25
2023-04-11T23:19:10.505Z,21.50
2023-04-11T23:21:38.011Z,23.00
2023-04-11T23:24:06.746Z,23.40
2023-04-11T23:26:33.424Z,26.60
2023-04-11T23:29:00.655Z,27.75
2023-04-11T23:31:27.521Z,24.00
2023-04-11T23:33:54.149Z,31.75
2023-04-11T23:36:21.023Z,24.00
2023-04-11T23:38:47.639Z,30.80
2023-04-11T23:41:14.825Z,27.40
2023-04-11T23:43:41.398Z,29.00
2023-04-11T23:46:08.050Z,26.75
2023-04-11T23:48:34.574Z,21.00
2023-04-11T23:51:01.338Z,34.00
2023-04-11T23:53:31.783Z,24.60
2023-04-11T23:55:58.352Z,27.50
2023-04-11T23:58:24.998Z,27.25
